sensor_id;sensor_type;location;lat;lon;timestamp;temperature;humidity
11925;DHT22;6022;48.768;18.608;2023-04-09T00:01:26;4.60;99.90
11925;DHT22;6022;48.768;18.608;2023-04-09T00:08:08;4.50;99.90
11925;DHT22;6022;48.768;18.608;2023-04-09T00:10:51;4.70;99.90
11925;DHT22;6022;48.768;18.608;2023-04-09T00:13:33;4.10;99.90
11925;DHT22;6022;48.768;18.608;2023-04-09T00:16:15;4.30;99.90
11925;DHT22;6022;48.768;18.608;2023-04-09T00:18:56;4.20;99.90
11925;DHT22;6022;48.768;18.608;2023-04-09T00:21:38;4.60;99.90
11925;DHT22;6022;48.768;18.608;2023-04-09T00:24:19;4.60;99.90
11925;DHT22;6022;48.768;18.608;2023-04-09T00:27:00;4.20;99.90
11925;DHT22;6022;48.768;18.608;2023-04-09T00:29:42;4.60;99.90
11925;DHT22;6022;48.768;18.608;2023-04-09T00:32:23;4.30;99.90
11925;DHT22;6022;48.768;18.608;2023-04-09T00:35:05;4.00;99.90
11925;DHT22;6022;48.768;18.608;2023-04-09T00:37:54;4.10;99.90
11925;DHT22;6022;48.768;18.608;2023-04-09T00:40:38;4.60;99.90
11925;DHT22;6022;48.768;18.608;2023-04-09T00:43:31;4.20;99.90
11925;DHT22;6022;48.768;18.608;2023-04-09T00:46:01;4.40;99.90
11925;DHT22;6022;48.768;18.608;2023-04-09T00:48:35;4.20;99.90
11925;DHT22;6022;48.768;18.608;2023-04-09T00:51:04;4.10;99.90
11925;DHT22;6022;48.768;18.608;2023-04-09T00:53:32;3.80;99.90
11925;DHT22;6022;48.768;18.608;2023-04-09T00:56:00;3.70;99.90
11925;DHT22;6022;48.768;18.608;2023-04-09T00:58:31;4.20;99.90
11925;DHT22;6022;48.768;18.608;2023-04-09T01:00:58;3.80;99.90
11925;DHT22;6022;48.768;18.608;2023-04-09T01:03:26;4.10;99.90
11925;DHT22;6022;48.768;18.608;2023-04-09T01:06:03;4.20;99.90
11925;DHT22;6022;48.768;18.608;2023-04-09T01:15:13;4.10;99.90
11925;DHT22;6022;48.768;18.608;2023-04-09T01:17:51;4.10;99.90
11925;DHT22;6022;48.768;18.608;2023-04-09T01:20:32;4.30;99.90
11925;DHT22;6022;48.768;18.608;2023-04-09T01:25:43;4.10;99.90
11925;DHT22;6022;48.768;18.608;2023-04-09T01:28:36;3.90;99.90
11925;DHT22;6022;48.768;18.608;2023-04-09T01:31:10;4.30;99.90
11925;DHT22;6022;48.768;18.608;2023-04-09T01:33:43;4.10;99.90
11925;DHT22;6022;48.768;18.608;2023-04-09T01:36:12;3.70;99.90
11925;DHT22;6022;48.768;18.608;2023-04-09T01:38:42;3.90;99.90
11925;DHT22;6022;48.768;18.608;2023-04-09T01:41:14;4.00;99.90
11925;DHT22;6022;48.768;18.608;2023-04-09T01:43:44;3.60;99.90
11925;DHT22;6022;48.768;18.608;2023-04-09T01:46:13;3.50;99.90
11925;DHT22;6022;48.768;18.608;2023-04-09T01:48:42;4.10;99.90
11925;DHT22;6022;48.768;18.608;2023-04-09T01:51:10;4.20;99.90
11925;DHT22;6022;48.768;18.608;2023-04-09T01:53:40;4.00;99.90
11925;DHT22;6022;48.768;18.608;2023-04-09T01:56:08;3.80;99.90
11925;DHT22;6022;48.768;18.608;2023-04-09T01:58:36;3.60;99.90
11925;DHT22;6022;48.768;18.608;2023-04-09T02:01:19;3.60;99.90
11925;DHT22;6022;48.768;18.608;2023-04-09T02:03:53;3.90;99.90
11925;DHT22;6022;48.768;18.608;2023-04-09T02:06:43;3.80;99.90
11925;DHT22;6022;48.768;18.608;2023-04-09T02:09:20;3.80;99.90
11925;DHT22;6022;48.768;18.608;2023-04-09T02:11:48;4.20;99.90
11925;DHT22;6022;48.768;18.608;2023-04-09T02:14:17;3.70;99.90
11925;DHT22;6022;48.768;18.608;2023-04-09T02:16:46;3.70;99.90
11925;DHT22;6022;48.768;18.608;2023-04-09T02:19:13;3.80;99.90
11925;DHT22;6022;48.768;18.608;2023-04-09T02:21:41;4.10;99.90
11925;DHT22;6022;48.768;18.608;2023-04-09T02:24:10;4.10;99.90
11925;DHT22;6022;48.768;18.608;2023-04-09T02:26:37;3.70;99.90
11925;DHT22;6022;48.768;18.608;2023-04-09T02:29:04;3.60;99.90
11925;DHT22;6022;48.768;18.608;2023-04-09T02:31:31;3.90;99.90
11925;DHT22;6022;48.768;18.608;2023-04-09T02:33:59;3.90;99.90
11925;DHT22;6022;48.768;18.608;2023-04-09T02:36:26;3.70;99.90
11925;DHT22;6022;48.768;18.608;2023-04-09T02:38:54;3.80;99.90
11925;DHT22;6022;48.768;18.608;2023-04-09T02:41:21;3.80;99.90
11925;DHT22;6022;48.768;18.608;2023-04-09T02:43:48;3.60;99.90
11925;DHT22;6022;48.768;18.608;2023-04-09T02:46:15;3.70;99.90
11925;DHT22;6022;48.768;18.608;2023-04-09T02:48:43;3.70;99.90
11925;DHT22;6022;48.768;18.608;2023-04-09T02:51:10;3.50;99.90
11925;DHT22;6022;48.768;18.608;2023-04-09T02:53:37;3.60;99.90
11925;DHT22;6022;48.768;18.608;2023-04-09T02:56:13;3.40;99.90
11925;DHT22;6022;48.768;18.608;2023-04-09T02:58:40;3.80;99.90
11925;DHT22;6022;48.768;18.608;2023-04-09T03:01:07;3.60;99.90
11925;DHT22;6022;48.768;18.608;2023-04-09T03:03:40;3.60;99.90
11925;DHT22;6022;48.768;18.608;2023-04-09T03:06:08;3.40;99.90
11925;DHT22;6022;48.768;18.608;2023-04-09T03:08:36;3.50;99.90
11925;DHT22;6022;48.768;18.608;2023-04-09T03:11:03;3.30;99.90
11925;DHT22;6022;48.768;18.608;2023-04-09T03:13:31;3.60;99.90
11925;DHT22;6022;48.768;18.608;2023-04-09T03:15:58;3.60;99.90
11925;DHT22;6022;48.768;18.608;2023-04-09T03:18:25;3.50;99.90
11925;DHT22;6022;48.768;18.608;2023-04-09T03:20:52;3.60;99.90
11925;DHT22;6022;48.768;18.608;2023-04-09T03:23:20;3.50;99.90
11925;DHT22;6022;48.768;18.608;2023-04-09T03:25:47;3.40;99.90
11925;DHT22;6022;48.768;18.608;2023-04-09T03:28:14;3.50;99.90
11925;DHT22;6022;48.768;18.608;2023-04-09T03:30:42;3.40;99.90
11925;DHT22;6022;48.768;18.608;2023-04-09T03:33:10;3.50;99.90
11925;DHT22;6022;48.768;18.608;2023-04-09T03:35:37;3.50;99.90
11925;DHT22;6022;48.768;18.608;2023-04-09T03:38:07;3.50;99.90
11925;DHT22;6022;48.768;18.608;2023-04-09T03:40:34;3.20;99.90
11925;DHT22;6022;48.768;18.608;2023-04-09T03:43:02;3.40;99.90
11925;DHT22;6022;48.768;18.608;2023-04-09T03:45:30;3.20;99.90
11925;DHT22;6022;48.768;18.608;2023-04-09T03:47:57;3.60;99.90
11925;DHT22;6022;48.768;18.608;2023-04-09T03:50:24;3.30;99.90
11925;DHT22;6022;48.768;18.608;2023-04-09T03:52:51;3.70;99.90
11925;DHT22;6022;48.768;18.608;2023-04-09T03:55:19;3.50;99.90
11925;DHT22;6022;48.768;18.608;2023-04-09T03:57:48;3.60;99.90
11925;DHT22;6022;48.768;18.608;2023-04-09T04:00:16;3.60;99.90
11925;DHT22;6022;48.768;18.608;2023-04-09T04:02:45;3.70;99.90
11925;DHT22;6022;48.768;18.608;2023-04-09T04:05:13;3.20;99.90
11925;DHT22;6022;48.768;18.608;2023-04-09T04:07:40;3.60;99.90
11925;DHT22;6022;48.768;18.608;2023-04-09T04:10:09;3.40;99.90
11925;DHT22;6022;48.768;18.608;2023-04-09T04:12:37;3.40;99.90
11925;DHT22;6022;48.768;18.608;2023-04-09T04:15:07;3.60;99.90
11925;DHT22;6022;48.768;18.608;2023-04-09T04:17:35;3.60;99.90
11925;DHT22;6022;48.768;18.608;2023-04-09T04:20:02;3.30;99.90
11925;DHT22;6022;48.768;18.608;2023-04-09T04:22:29;3.10;99.90
11925;DHT22;6022;48.768;18.608;2023-04-09T04:24:57;3.70;99.90
11925;DHT22;6022;48.768;18.608;2023-04-09T04:27:24;3.20;99.90
11925;DHT22;6022;48.768;18.608;2023-04-09T04:29:51;3.40;99.90
11925;DHT22;6022;48.768;18.608;2023-04-09T04:32:18;3.70;99.90
11925;DHT22;6022;48.768;18.608;2023-04-09T04:34:48;3.30;99.90
11925;DHT22;6022;48.768;18.608;2023-04-09T04:37:15;3.80;99.90
11925;DHT22;6022;48.768;18.608;2023-04-09T04:39:43;3.80;99.90
11925;DHT22;6022;48.768;18.608;2023-04-09T04:42:10;3.40;99.90
11925;DHT22;6022;48.768;18.608;2023-04-09T04:44:37;3.60;99.90
11925;DHT22;6022;48.768;18.608;2023-04-09T04:47:04;3.50;99.90
11925;DHT22;6022;48.768;18.608;2023-04-09T04:49:31;3.40;99.90
11925;DHT22;6022;48.768;18.608;2023-04-09T04:51:58;3.40;99.90
11925;DHT22;6022;48.768;18.608;2023-04-09T04:54:27;3.30;99.90
11925;DHT22;6022;48.768;18.608;2023-04-09T04:56:54;3.40;99.90
11925;DHT22;6022;48.768;18.608;2023-04-09T04:59:22;3.60;99.90
11925;DHT22;6022;48.768;18.608;2023-04-09T05:01:49;3.60;99.90
11925;DHT22;6022;48.768;18.608;2023-04-09T05:04:16;3.70;99.90
11925;DHT22;6022;48.768;18.608;2023-04-09T05:06:43;3.60;99.90
11925;DHT22;6022;48.768;18.608;2023-04-09T05:09:10;4.00;99.90
11925;DHT22;6022;48.768;18.608;2023-04-09T05:11:38;3.80;99.90
11925;DHT22;6022;48.768;18.608;2023-04-09T05:14:05;4.40;99.90
11925;DHT22;6022;48.768;18.608;2023-04-09T05:16:32;4.10;99.90
11925;DHT22;6022;48.768;18.608;2023-04-09T05:18:59;4.10;99.90
11925;DHT22;6022;48.768;18.608;2023-04-09T05:21:26;3.90;99.90
11925;DHT22;6022;48.768;18.608;2023-04-09T05:23:54;3.90;99.90
11925;DHT22;6022;48.768;18.608;2023-04-09T05:26:21;3.90;99.90
11925;DHT22;6022;48.768;18.608;2023-04-09T05:28:48;4.40;99.90
11925;DHT22;6022;48.768;18.608;2023-04-09T05:31:16;3.90;99.90
11925;DHT22;6022;48.768;18.608;2023-04-09T05:33:43;4.30;99.90
11925;DHT22;6022;48.768;18.608;2023-04-09T05:36:17;4.00;99.90
11925;DHT22;6022;48.768;18.608;2023-04-09T05:38:46;3.80;99.90
11925;DHT22;6022;48.768;18.608;2023-04-09T05:41:13;4.50;99.90
11925;DHT22;6022;48.768;18.608;2023-04-09T05:43:59;4.30;99.90
11925;DHT22;6022;48.768;18.608;2023-04-09T05:46:27;4.40;99.90
11925;DHT22;6022;48.768;18.608;2023-04-09T05:48:54;4.00;99.90
11925;DHT22;6022;48.768;18.608;2023-04-09T05:51:22;4.40;99.90
11925;DHT22;6022;48.768;18.608;2023-04-09T05:53:53;4.40;99.90
11925;DHT22;6022;48.768;18.608;2023-04-09T05:56:27;4.50;99.90
11925;DHT22;6022;48.768;18.608;2023-04-09T05:58:54;4.20;99.90
11925;DHT22;6022;48.768;18.608;2023-04-09T06:01:21;4.30;99.90
11925;DHT22;6022;48.768;18.608;2023-04-09T06:03:49;4.60;99.90
11925;DHT22;6022;48.768;18.608;2023-04-09T06:06:23;4.10;99.90
11925;DHT22;6022;48.768;18.608;2023-04-09T06:08:50;4.70;99.90
11925;DHT22;6022;48.768;18.608;2023-04-09T06:11:34;4.50;99.90
11925;DHT22;6022;48.768;18.608;2023-04-09T06:14:01;4.50;99.90
11925;DHT22;6022;48.768;18.608;2023-04-09T06:16:29;4.70;99.90
11925;DHT22;6022;48.768;18.608;2023-04-09T06:18:59;4.90;99.90
11925;DHT22;6022;48.768;18.608;2023-04-09T06:21:29;5.00;99.90
11925;DHT22;6022;48.768;18.608;2023-04-09T06:23:59;4.90;99.90
11925;DHT22;6022;48.768;18.608;2023-04-09T06:26:26;5.00;99.90
11925;DHT22;6022;48.768;18.608;2023-04-09T06:28:56;5.00;99.90
11925;DHT22;6022;48.768;18.608;2023-04-09T06:31:23;4.70;99.90
11925;DHT22;6022;48.768;18.608;2023-04-09T06:33:55;5.00;99.90
11925;DHT22;6022;48.768;18.608;2023-04-09T06:36:23;5.40;99.90
11925;DHT22;6022;48.768;18.608;2023-04-09T06:38:50;4.80;99.90
11925;DHT22;6022;48.768;18.608;2023-04-09T06:41:24;4.90;99.90
11925;DHT22;6022;48.768;18.608;2023-04-09T06:43:54;5.10;99.90
11925;DHT22;6022;48.768;18.608;2023-04-09T06:46:27;5.10;99.90
11925;DHT22;6022;48.768;18.608;2023-04-09T06:48:59;5.40;99.90
11925;DHT22;6022;48.768;18.608;2023-04-09T06:51:29;5.30;99.90
11925;DHT22;6022;48.768;18.608;2023-04-09T06:54:01;5.30;99.90
11925;DHT22;6022;48.768;18.608;2023-04-09T06:56:28;5.60;99.90
11925;DHT22;6022;48.768;18.608;2023-04-09T06:58:56;5.50;99.90
11925;DHT22;6022;48.768;18.608;2023-04-09T07:01:26;5.70;99.90
11925;DHT22;6022;48.768;18.608;2023-04-09T07:03:53;5.40;99.90
11925;DHT22;6022;48.768;18.608;2023-04-09T07:06:21;5.40;99.90
11925;DHT22;6022;48.768;18.608;2023-04-09T07:08:48;5.80;99.90
11925;DHT22;6022;48.768;18.608;2023-04-09T07:11:16;5.70;99.90
11925;DHT22;6022;48.768;18.608;2023-04-09T07:13:44;6.00;99.90
11925;DHT22;6022;48.768;18.608;2023-04-09T07:16:11;5.70;99.90
11925;DHT22;6022;48.768;18.608;2023-04-09T07:18:38;5.80;99.90
11925;DHT22;6022;48.768;18.608;2023-04-09T07:21:06;6.00;99.90
11925;DHT22;6022;48.768;18.608;2023-04-09T07:23:34;6.10;99.90
11925;DHT22;6022;48.768;18.608;2023-04-09T07:26:05;6.10;99.90
11925;DHT22;6022;48.768;18.608;2023-04-09T07:28:32;6.00;99.90
11925;DHT22;6022;48.768;18.608;2023-04-09T07:31:00;6.10;99.90
11925;DHT22;6022;48.768;18.608;2023-04-09T07:33:31;6.40;99.90
11925;DHT22;6022;48.768;18.608;2023-04-09T07:36:02;6.10;99.90
11925;DHT22;6022;48.768;18.608;2023-04-09T07:38:30;6.20;99.90
11925;DHT22;6022;48.768;18.608;2023-04-09T07:40:57;6.10;99.90
11925;DHT22;6022;48.768;18.608;2023-04-09T07:43:25;6.50;99.90
11925;DHT22;6022;48.768;18.608;2023-04-09T07:45:52;6.40;99.90
11925;DHT22;6022;48.768;18.608;2023-04-09T07:48:22;6.70;99.90
11925;DHT22;6022;48.768;18.608;2023-04-09T07:50:49;6.60;99.90
11925;DHT22;6022;48.768;18.608;2023-04-09T07:53:17;6.70;99.90
11925;DHT22;6022;48.768;18.608;2023-04-09T07:55:44;6.80;99.90
11925;DHT22;6022;48.768;18.608;2023-04-09T07:58:12;7.20;99.90
11925;DHT22;6022;48.768;18.608;2023-04-09T08:00:39;7.40;99.90
11925;DHT22;6022;48.768;18.608;2023-04-09T08:03:07;7.50;99.90
11925;DHT22;6022;48.768;18.608;2023-04-09T08:05:34;7.70;99.90
11925;DHT22;6022;48.768;18.608;2023-04-09T08:08:04;7.90;99.90
11925;DHT22;6022;48.768;18.608;2023-04-09T08:10:31;8.40;99.90
11925;DHT22;6022;48.768;18.608;2023-04-09T08:12:59;8.50;99.90
11925;DHT22;6022;48.768;18.608;2023-04-09T08:15:26;8.30;99.90
11925;DHT22;6022;48.768;18.608;2023-04-09T08:17:53;8.90;99.90
11925;DHT22;6022;48.768;18.608;2023-04-09T08:20:21;8.40;99.90
11925;DHT22;6022;48.768;18.608;2023-04-09T08:22:48;8.70;99.90
11925;DHT22;6022;48.768;18.608;2023-04-09T08:25:16;8.90;99.90
11925;DHT22;6022;48.768;18.608;2023-04-09T08:27:46;9.00;99.90
11925;DHT22;6022;48.768;18.608;2023-04-09T08:30:14;8.80;99.90
11925;DHT22;6022;48.768;18.608;2023-04-09T08:32:44;8.90;99.90
11925;DHT22;6022;48.768;18.608;2023-04-09T08:35:11;8.80;99.90
11925;DHT22;6022;48.768;18.608;2023-04-09T08:37:39;9.60;99.90
11925;DHT22;6022;48.768;18.608;2023-04-09T08:40:07;10.10;99.90
11925;DHT22;6022;48.768;18.608;2023-04-09T08:42:43;9.50;99.90
11925;DHT22;6022;48.768;18.608;2023-04-09T08:45:14;10.30;99.90
11925;DHT22;6022;48.768;18.608;2023-04-09T08:47:44;10.90;99.90
11925;DHT22;6022;48.768;18.608;2023-04-09T08:50:16;10.90;99.90
11925;DHT22;6022;48.768;18.608;2023-04-09T08:52:45;11.40;99.90
11925;DHT22;6022;48.768;18.608;2023-04-09T08:55:16;11.20;99.90
11925;DHT22;6022;48.768;18.608;2023-04-09T08:57:43;11.40;99.90
11925;DHT22;6022;48.768;18.608;2023-04-09T09:00:11;11.80;99.90
11925;DHT22;6022;48.768;18.608;2023-04-09T09:03:04;11.70;99.90
11925;DHT22;6022;48.768;18.608;2023-04-09T09:05:44;12.80;99.90
11925;DHT22;6022;48.768;18.608;2023-04-09T09:08:22;13.70;99.90
11925;DHT22;6022;48.768;18.608;2023-04-09T09:10:55;13.50;99.90
11925;DHT22;6022;48.768;18.608;2023-04-09T09:13:35;13.50;99.90
11925;DHT22;6022;48.768;18.608;2023-04-09T09:16:13;13.40;99.90
11925;DHT22;6022;48.768;18.608;2023-04-09T09:18:44;13.40;99.90
11925;DHT22;6022;48.768;18.608;2023-04-09T09:21:16;13.40;99.90
11925;DHT22;6022;48.768;18.608;2023-04-09T09:23:45;13.10;99.90
11925;DHT22;6022;48.768;18.608;2023-04-09T09:26:19;12.50;99.90
11925;DHT22;6022;48.768;18.608;2023-04-09T09:28:49;12.20;99.90
11925;DHT22;6022;48.768;18.608;2023-04-09T09:31:19;12.20;99.90
11925;DHT22;6022;48.768;18.608;2023-04-09T09:33:47;11.70;99.90
11925;DHT22;6022;48.768;18.608;2023-04-09T09:36:32;11.50;99.90
11925;DHT22;6022;48.768;18.608;2023-04-09T09:39:01;11.50;99.90
11925;DHT22;6022;48.768;18.608;2023-04-09T09:41:31;12.00;99.90
11925;DHT22;6022;48.768;18.608;2023-04-09T09:43:58;12.10;99.90
11925;DHT22;6022;48.768;18.608;2023-04-09T09:46:25;11.90;99.90
11925;DHT22;6022;48.768;18.608;2023-04-09T09:48:53;11.70;99.90
11925;DHT22;6022;48.768;18.608;2023-04-09T09:51:24;11.40;99.90
11925;DHT22;6022;48.768;18.608;2023-04-09T09:53:58;11.60;99.90
11925;DHT22;6022;48.768;18.608;2023-04-09T09:56:31;11.40;99.90
11925;DHT22;6022;48.768;18.608;2023-04-09T10:01:59;11.50;99.90
11925;DHT22;6022;48.768;18.608;2023-04-09T10:04:33;11.00;99.90
11925;DHT22;6022;48.768;18.608;2023-04-09T10:07:06;10.90;99.90
11925;DHT22;6022;48.768;18.608;2023-04-09T10:09:37;10.70;99.90
11925;DHT22;6022;48.768;18.608;2023-04-09T10:12:08;10.80;99.90
11925;DHT22;6022;48.768;18.608;2023-04-09T10:14:38;10.50;99.90
11925;DHT22;6022;48.768;18.608;2023-04-09T10:17:06;10.50;99.90
11925;DHT22;6022;48.768;18.608;2023-04-09T10:19:38;10.50;99.90
11925;DHT22;6022;48.768;18.608;2023-04-09T10:22:16;10.40;99.90
11925;DHT22;6022;48.768;18.608;2023-04-09T10:24:49;10.70;99.90
11925;DHT22;6022;48.768;18.608;2023-04-09T10:27:18;10.60;99.90
11925;DHT22;6022;48.768;18.608;2023-04-09T10:29:47;10.50;99.90
11925;DHT22;6022;48.768;18.608;2023-04-09T10:32:36;10.90;99.90
11925;DHT22;6022;48.768;18.608;2023-04-09T10:35:03;11.10;99.90
11925;DHT22;6022;48.768;18.608;2023-04-09T10:37:34;11.10;99.90
11925;DHT22;6022;48.768;18.608;2023-04-09T10:40:02;11.30;99.90
11925;DHT22;6022;48.768;18.608;2023-04-09T10:42:38;11.30;99.90
11925;DHT22;6022;48.768;18.608;2023-04-09T10:45:13;11.60;99.90
11925;DHT22;6022;48.768;18.608;2023-04-09T10:47:48;11.30;99.90
11925;DHT22;6022;48.768;18.608;2023-04-09T10:50:26;11.40;99.90
11925;DHT22;6022;48.768;18.608;2023-04-09T10:52:55;11.20;99.90
11925;DHT22;6022;48.768;18.608;2023-04-09T10:55:38;11.00;99.90
11925;DHT22;6022;48.768;18.608;2023-04-09T10:58:10;11.10;99.90
11925;DHT22;6022;48.768;18.608;2023-04-09T11:00:41;11.20;99.90
11925;DHT22;6022;48.768;18.608;2023-04-09T11:03:23;11.20;99.90
11925;DHT22;6022;48.768;18.608;2023-04-09T11:06:06;11.00;99.90
11925;DHT22;6022;48.768;18.608;2023-04-09T11:08:37;11.20;99.90
11925;DHT22;6022;48.768;18.608;2023-04-09T11:11:05;11.80;99.90
11925;DHT22;6022;48.768;18.608;2023-04-09T11:13:32;11.60;99.90
11925;DHT22;6022;48.768;18.608;2023-04-09T11:16:01;11.20;99.90
11925;DHT22;6022;48.768;18.608;2023-04-09T11:18:33;11.40;99.90
11925;DHT22;6022;48.768;18.608;2023-04-09T11:21:05;11.20;99.90
11925;DHT22;6022;48.768;18.608;2023-04-09T11:23:35;11.80;99.90
11925;DHT22;6022;48.768;18.608;2023-04-09T11:26:02;11.70;99.90
11925;DHT22;6022;48.768;18.608;2023-04-09T11:28:33;11.40;99.90
11925;DHT22;6022;48.768;18.608;2023-04-09T11:31:03;11.60;99.90
11925;DHT22;6022;48.768;18.608;2023-04-09T11:33:32;11.40;99.90
11925;DHT22;6022;48.768;18.608;2023-04-09T11:36:01;11.60;99.90
11925;DHT22;6022;48.768;18.608;2023-04-09T11:38:35;11.50;99.90
11925;DHT22;6022;48.768;18.608;2023-04-09T11:41:03;11.10;99.90
11925;DHT22;6022;48.768;18.608;2023-04-09T11:43:35;11.10;99.90
11925;DHT22;6022;48.768;18.608;2023-04-09T11:46:02;11.10;99.90
11925;DHT22;6022;48.768;18.608;2023-04-09T11:48:31;11.20;99.90
11925;DHT22;6022;48.768;18.608;2023-04-09T11:50:58;10.80;99.90
11925;DHT22;6022;48.768;18.608;2023-04-09T11:53:30;10.80;99.90
11925;DHT22;6022;48.768;18.608;2023-04-09T11:55:57;10.90;99.90
11925;DHT22;6022;48.768;18.608;2023-04-09T11:58:25;11.00;99.90
11925;DHT22;6022;48.768;18.608;2023-04-09T12:00:55;11.00;99.90
11925;DHT22;6022;48.768;18.608;2023-04-09T12:03:31;11.20;99.90
11925;DHT22;6022;48.768;18.608;2023-04-09T12:06:03;11.40;99.90
11925;DHT22;6022;48.768;18.608;2023-04-09T12:08:35;11.30;99.90
11925;DHT22;6022;48.768;18.608;2023-04-09T12:11:11;11.30;99.90
11925;DHT22;6022;48.768;18.608;2023-04-09T12:13:39;11.20;99.90
11925;DHT22;6022;48.768;18.608;2023-04-09T12:16:12;11.40;99.90
11925;DHT22;6022;48.768;18.608;2023-04-09T12:18:40;11.40;99.90
11925;DHT22;6022;48.768;18.608;2023-04-09T12:21:08;11.40;99.90
11925;DHT22;6022;48.768;18.608;2023-04-09T12:23:35;11.60;99.90
11925;DHT22;6022;48.768;18.608;2023-04-09T12:26:05;11.60;99.90
11925;DHT22;6022;48.768;18.608;2023-04-09T12:28:35;11.70;99.90
11925;DHT22;6022;48.768;18.608;2023-04-09T12:31:02;12.00;99.90
11925;DHT22;6022;48.768;18.608;2023-04-09T12:33:30;11.60;99.90
11925;DHT22;6022;48.768;18.608;2023-04-09T12:35:58;11.50;99.90
11925;DHT22;6022;48.768;18.608;2023-04-09T12:38:25;11.50;99.90
11925;DHT22;6022;48.768;18.608;2023-04-09T12:40:52;11.60;99.90
11925;DHT22;6022;48.768;18.608;2023-04-09T12:43:20;11.40;99.90
11925;DHT22;6022;48.768;18.608;2023-04-09T12:45:47;11.50;99.90
11925;DHT22;6022;48.768;18.608;2023-04-09T12:48:14;11.50;99.90
11925;DHT22;6022;48.768;18.608;2023-04-09T12:50:42;11.60;99.90
11925;DHT22;6022;48.768;18.608;2023-04-09T12:53:09;11.40;99.90
11925;DHT22;6022;48.768;18.608;2023-04-09T12:55:36;11.40;99.90
11925;DHT22;6022;48.768;18.608;2023-04-09T12:58:03;11.40;99.90
11925;DHT22;6022;48.768;18.608;2023-04-09T13:00:31;11.30;99.90
11925;DHT22;6022;48.768;18.608;2023-04-09T13:02:59;11.40;99.90
11925;DHT22;6022;48.768;18.608;2023-04-09T13:05:26;11.10;99.90
11925;DHT22;6022;48.768;18.608;2023-04-09T13:07:57;11.10;99.90
11925;DHT22;6022;48.768;18.608;2023-04-09T13:10:24;11.10;99.90
11925;DHT22;6022;48.768;18.608;2023-04-09T13:12:51;10.90;99.90
11925;DHT22;6022;48.768;18.608;2023-04-09T13:15:19;10.90;99.90
11925;DHT22;6022;48.768;18.608;2023-04-09T13:17:46;11.00;99.90
11925;DHT22;6022;48.768;18.608;2023-04-09T13:20:14;11.20;99.90
11925;DHT22;6022;48.768;18.608;2023-04-09T13:22:41;11.20;99.90
11925;DHT22;6022;48.768;18.608;2023-04-09T13:25:08;11.20;99.90
11925;DHT22;6022;48.768;18.608;2023-04-09T13:27:35;11.20;99.90
11925;DHT22;6022;48.768;18.608;2023-04-09T13:30:03;11.30;99.90
11925;DHT22;6022;48.768;18.608;2023-04-09T13:32:31;11.40;99.90
11925;DHT22;6022;48.768;18.608;2023-04-09T13:34:58;11.00;99.90
11925;DHT22;6022;48.768;18.608;2023-04-09T13:37:25;10.90;99.90
11925;DHT22;6022;48.768;18.608;2023-04-09T13:39:53;11.00;99.90
11925;DHT22;6022;48.768;18.608;2023-04-09T13:42:27;11.20;99.90
11925;DHT22;6022;48.768;18.608;2023-04-09T13:44:54;11.20;99.90
11925;DHT22;6022;48.768;18.608;2023-04-09T13:47:22;10.90;99.90
11925;DHT22;6022;48.768;18.608;2023-04-09T13:49:49;11.10;99.90
11925;DHT22;6022;48.768;18.608;2023-04-09T13:52:19;11.10;99.90
11925;DHT22;6022;48.768;18.608;2023-04-09T13:54:46;11.10;99.90
11925;DHT22;6022;48.768;18.608;2023-04-09T13:57:15;11.10;99.90
11925;DHT22;6022;48.768;18.608;2023-04-09T13:59:45;11.10;99.90
11925;DHT22;6022;48.768;18.608;2023-04-09T14:02:12;11.10;99.90
11925;DHT22;6022;48.768;18.608;2023-04-09T14:04:41;11.00;99.90
11925;DHT22;6022;48.768;18.608;2023-04-09T14:07:09;10.90;99.90
11925;DHT22;6022;48.768;18.608;2023-04-09T14:09:37;11.00;99.90
11925;DHT22;6022;48.768;18.608;2023-04-09T14:12:05;11.00;99.90
11925;DHT22;6022;48.768;18.608;2023-04-09T14:14:32;10.90;99.90
11925;DHT22;6022;48.768;18.608;2023-04-09T14:16:59;10.90;99.90
11925;DHT22;6022;48.768;18.608;2023-04-09T14:19:26;10.90;99.90
11925;DHT22;6022;48.768;18.608;2023-04-09T14:21:54;10.90;99.90
11925;DHT22;6022;48.768;18.608;2023-04-09T14:24:21;10.90;99.90
11925;DHT22;6022;48.768;18.608;2023-04-09T14:26:49;10.90;99.90
11925;DHT22;6022;48.768;18.608;2023-04-09T14:29:19;10.90;99.90
11925;DHT22;6022;48.768;18.608;2023-04-09T14:31:49;11.00;99.90
11925;DHT22;6022;48.768;18.608;2023-04-09T14:34:17;10.90;99.90
11925;DHT22;6022;48.768;18.608;2023-04-09T14:36:45;11.10;99.90
11925;DHT22;6022;48.768;18.608;2023-04-09T14:39:14;11.00;99.90
11925;DHT22;6022;48.768;18.608;2023-04-09T14:41:46;10.90;99.90
11925;DHT22;6022;48.768;18.608;2023-04-09T14:44:16;10.80;99.90
11925;DHT22;6022;48.768;18.608;2023-04-09T14:46:43;11.00;99.90
11925;DHT22;6022;48.768;18.608;2023-04-09T14:49:15;11.00;99.90
11925;DHT22;6022;48.768;18.608;2023-04-09T14:51:43;11.00;99.90
11925;DHT22;6022;48.768;18.608;2023-04-09T14:54:12;10.90;99.90
11925;DHT22;6022;48.768;18.608;2023-04-09T14:56:45;10.90;99.90
11925;DHT22;6022;48.768;18.608;2023-04-09T14:59:20;10.90;99.90
11925;DHT22;6022;48.768;18.608;2023-04-09T15:01:47;10.90;99.90
11925;DHT22;6022;48.768;18.608;2023-04-09T15:04:15;10.90;99.90
11925;DHT22;6022;48.768;18.608;2023-04-09T15:06:42;10.80;99.90
11925;DHT22;6022;48.768;18.608;2023-04-09T15:09:13;10.80;99.90
11925;DHT22;6022;48.768;18.608;2023-04-09T15:11:48;10.60;99.90
11925;DHT22;6022;48.768;18.608;2023-04-09T15:14:15;10.70;99.90
11925;DHT22;6022;48.768;18.608;2023-04-09T15:16:50;10.80;99.90
11925;DHT22;6022;48.768;18.608;2023-04-09T15:19:22;10.70;99.90
11925;DHT22;6022;48.768;18.608;2023-04-09T15:21:49;10.70;99.90
11925;DHT22;6022;48.768;18.608;2023-04-09T15:24:16;10.70;99.90
11925;DHT22;6022;48.768;18.608;2023-04-09T15:26:44;10.60;99.90
11925;DHT22;6022;48.768;18.608;2023-04-09T15:29:11;10.60;99.90
11925;DHT22;6022;48.768;18.608;2023-04-09T15:31:38;10.60;99.90
11925;DHT22;6022;48.768;18.608;2023-04-09T15:34:07;10.60;99.90
11925;DHT22;6022;48.768;18.608;2023-04-09T15:36:34;10.70;99.90
11925;DHT22;6022;48.768;18.608;2023-04-09T15:39:02;10.70;99.90
11925;DHT22;6022;48.768;18.608;2023-04-09T15:41:30;10.50;99.90
11925;DHT22;6022;48.768;18.608;2023-04-09T15:44:00;10.70;99.90
11925;DHT22;6022;48.768;18.608;2023-04-09T15:46:27;10.50;99.90
11925;DHT22;6022;48.768;18.608;2023-04-09T15:48:54;10.50;99.90
11925;DHT22;6022;48.768;18.608;2023-04-09T15:51:24;10.50;99.90
11925;DHT22;6022;48.768;18.608;2023-04-09T15:53:53;10.30;99.90
11925;DHT22;6022;48.768;18.608;2023-04-09T15:56:30;10.40;99.90
11925;DHT22;6022;48.768;18.608;2023-04-09T15:58:58;10.80;99.90
11925;DHT22;6022;48.768;18.608;2023-04-09T16:01:28;10.80;99.90
11925;DHT22;6022;48.768;18.608;2023-04-09T16:03:55;10.70;99.90
11925;DHT22;6022;48.768;18.608;2023-04-09T16:06:23;10.60;99.90
11925;DHT22;6022;48.768;18.608;2023-04-09T16:08:51;10.50;99.90
11925;DHT22;6022;48.768;18.608;2023-04-09T16:11:22;10.40;99.90
11925;DHT22;6022;48.768;18.608;2023-04-09T16:13:49;10.30;99.90